createdAt,value
2022-11-08T00:01:18.675Z,100613.03
2022-11-08T00:03:48.444Z,100612.16
2022-11-08T00:06:30.672Z,100625.03
2022-11-08T00:09:12.887Z,100627.53
2022-11-08T00:11:57.682Z,100631.00
2022-11-08T00:14:27.495Z,100626.69
2022-11-08T00:16:57.265Z,100626.69
2022-11-08T00:19:27.127Z,100585.59
2022-11-08T00:21:56.852Z,100598.44
2022-11-08T00:24:26.584Z,100625.00
2022-11-08T00:26:59.023Z,100630.16
2022-11-08T00:29:28.870Z,100611.25
2022-11-08T00:31:58.651Z,100636.06
2022-11-08T00:34:28.470Z,100621.50
2022-11-08T00:36:58.328Z,100618.06
2022-11-08T00:39:28.261Z,100578.53
2022-11-08T00:42:01.068Z,100615.47
2022-11-08T00:44:31.106Z,100621.50
2022-11-08T00:47:00.955Z,100610.38
2022-11-08T00:49:30.937Z,100615.53
2022-11-08T00:52:00.687Z,100623.25
2022-11-08T00:54:30.495Z,100629.19
2022-11-08T00:57:02.916Z,100634.31
2022-11-08T00:59:32.732Z,100617.97
2022-11-08T01:02:02.670Z,100603.34
2022-11-08T01:04:32.581Z,100601.56
2022-11-08T01:07:02.358Z,100598.88
2022-11-08T01:09:32.187Z,100605.81
2022-11-08T01:12:04.542Z,100608.38
2022-11-08T01:14:34.398Z,100603.97
2022-11-08T01:17:04.121Z,100593.72
2022-11-08T01:19:33.879Z,100591.00
2022-11-08T01:22:03.647Z,100605.56
2022-11-08T01:24:33.437Z,100607.22
2022-11-08T01:27:05.833Z,100606.38
2022-11-08T01:29:36.331Z,100596.97
2022-11-08T01:32:06.128Z,100574.66
2022-11-08T01:34:36.173Z,100574.56
2022-11-08T01:37:05.956Z,100601.19
2022-11-08T01:39:35.918Z,100601.06
2022-11-08T01:42:08.639Z,100595.13
2022-11-08T01:44:59.934Z,100597.59
2022-11-08T01:47:29.710Z,100540.00
2022-11-08T01:50:02.423Z,100554.53
2022-11-08T01:52:36.369Z,100586.41
2022-11-08T01:55:12.573Z,100587.22
2022-11-08T01:57:50.064Z,100590.50
2022-11-08T02:00:20.487Z,100576.72
2022-11-08T02:02:57.160Z,100587.06
2022-11-08T02:05:30.045Z,100551.06
2022-11-08T02:08:04.934Z,100581.09
2022-11-08T02:10:37.878Z,100584.34
2022-11-08T02:13:14.959Z,100590.41
2022-11-08T02:15:45.206Z,100587.75
2022-11-08T02:18:17.426Z,100567.22
2022-11-08T02:21:03.775Z,100581.06
2022-11-08T02:23:51.653Z,100579.22
2022-11-08T02:26:24.950Z,100561.19
2022-11-08T02:28:54.773Z,100564.63
2022-11-08T02:31:24.533Z,100562.84
2022-11-08T02:33:54.311Z,100578.09
2022-11-08T02:36:26.988Z,100568.63
2022-11-08T02:39:00.576Z,100574.63
2022-11-08T02:41:30.346Z,100572.78
2022-11-08T02:44:00.216Z,100524.84
2022-11-08T02:46:29.960Z,100568.59
2022-11-08T02:48:59.750Z,100566.81
2022-11-08T02:51:29.528Z,100545.38
2022-11-08T02:54:01.889Z,100570.19
2022-11-08T02:56:31.638Z,100552.16
2022-11-08T02:59:01.402Z,100570.81
2022-11-08T03:01:31.291Z,100563.09
2022-11-08T03:04:01.154Z,100565.59
2022-11-08T03:06:30.944Z,100575.03
2022-11-08T03:09:03.353Z,100572.47
2022-11-08T03:11:33.130Z,100540.75
2022-11-08T03:14:02.971Z,100564.81
2022-11-08T03:16:33.096Z,100561.53
2022-11-08T03:19:02.879Z,100561.31
2022-11-08T03:21:32.694Z,100549.94
2022-11-08T03:24:05.075Z,100562.06
2022-11-08T03:26:34.931Z,100551.84
2022-11-08T03:29:04.679Z,100556.88
2022-11-08T03:31:34.545Z,100545.75
2022-11-08T03:34:04.331Z,100533.69
2022-11-08T03:36:34.070Z,100553.28
2022-11-08T03:39:06.710Z,100559.50
2022-11-08T03:41:36.451Z,100526.84
2022-11-08T03:44:06.295Z,100501.97
2022-11-08T03:46:36.088Z,100536.38
2022-11-08T03:49:05.918Z,100544.06
2022-11-08T03:51:35.708Z,100546.53
2022-11-08T03:54:08.176Z,100544.97
2022-11-08T03:56:37.994Z,100518.56
2022-11-08T03:59:07.792Z,100536.59
2022-11-08T04:01:37.759Z,100519.53
2022-11-08T04:04:08.413Z,100536.88
2022-11-08T04:06:39.470Z,100510.41
2022-11-08T04:09:11.820Z,100525.97
2022-11-08T04:11:54.064Z,100522.47
2022-11-08T04:14:36.325Z,100526.66
2022-11-08T04:17:06.103Z,100522.38
2022-11-08T04:19:48.342Z,100527.53
2022-11-08T04:22:18.268Z,100528.28
2022-11-08T04:24:50.752Z,100517.25
2022-11-08T04:27:20.551Z,100520.69
2022-11-08T04:29:50.301Z,100512.03
2022-11-08T04:32:20.038Z,100523.91
2022-11-08T04:34:49.769Z,100521.34
2022-11-08T04:37:19.515Z,100522.28
2022-11-08T04:39:51.988Z,100489.78
2022-11-08T04:42:22.040Z,100516.47
2022-11-08T04:44:51.819Z,100498.50
2022-11-08T04:47:21.602Z,100500.44
2022-11-08T04:49:51.405Z,100501.41
2022-11-08T04:52:21.129Z,100490.16
2022-11-08T04:54:53.469Z,100488.53
2022-11-08T04:57:23.233Z,100495.28
2022-11-08T04:59:53.013Z,100444.72
2022-11-08T05:02:22.976Z,100469.56
2022-11-08T05:04:52.926Z,100450.81
2022-11-08T05:07:23.119Z,100478.22
2022-11-08T05:09:59.868Z,100460.19
2022-11-08T05:12:31.922Z,100406.16
2022-11-08T05:15:01.700Z,100457.66
2022-11-08T05:17:31.601Z,100462.66
2022-11-08T05:20:13.819Z,100465.94
2022-11-08T05:22:56.023Z,100466.03
2022-11-08T05:25:28.385Z,100459.31
2022-11-08T05:27:58.115Z,100459.41
2022-11-08T05:30:27.952Z,100448.97
2022-11-08T05:32:57.692Z,100458.41
2022-11-08T05:35:27.425Z,100460.13
2022-11-08T05:37:57.177Z,100457.53
2022-11-08T05:40:33.399Z,100455.03
2022-11-08T05:43:03.426Z,100450.66
2022-11-08T05:45:33.192Z,100460.84
2022-11-08T05:48:03.884Z,100461.59
2022-11-08T05:50:34.071Z,100463.41
2022-11-08T05:53:08.415Z,100459.19
2022-11-08T05:55:40.784Z,100459.19
2022-11-08T05:58:10.560Z,100459.19
2022-11-08T06:00:40.316Z,100438.38
2022-11-08T06:03:10.504Z,100447.16
2022-11-08T06:05:40.458Z,100456.66
2022-11-08T06:08:10.251Z,100455.00
2022-11-08T06:10:43.747Z,100394.97
2022-11-08T06:13:13.615Z,100366.81
2022-11-08T06:15:43.601Z,100443.97
2022-11-08T06:18:13.463Z,100456.91
2022-11-08T06:20:44.357Z,100432.09
2022-11-08T06:23:14.157Z,100459.53
2022-11-08T06:25:49.495Z,100455.25
2022-11-08T06:28:20.383Z,100456.03
2022-11-08T06:30:51.366Z,100451.75
2022-11-08T06:33:23.143Z,100454.34
2022-11-08T06:35:52.990Z,100455.94
2022-11-08T06:38:22.989Z,100448.31
2022-11-08T06:40:55.407Z,100427.78
2022-11-08T06:43:26.512Z,100456.91
2022-11-08T06:45:57.870Z,100436.28
2022-11-08T06:48:32.411Z,100443.22
2022-11-08T06:51:09.416Z,100446.53
2022-11-08T06:53:40.213Z,100440.31
2022-11-08T06:56:14.449Z,100430.13
2022-11-08T06:58:47.949Z,100433.56
2022-11-08T07:01:18.948Z,100448.97
2022-11-08T07:03:49.832Z,100452.25
2022-11-08T07:06:19.709Z,100423.81
2022-11-08T07:08:51.024Z,100458.22
2022-11-08T07:11:24.563Z,100447.19
2022-11-08T07:13:54.380Z,100434.44
2022-11-08T07:16:24.274Z,100436.28
2022-11-08T07:18:56.472Z,100409.78
2022-11-08T07:21:29.937Z,100394.50
2022-11-08T07:23:59.768Z,100418.53
2022-11-08T07:26:33.236Z,100410.88
2022-11-08T07:29:03.098Z,100421.94
2022-11-08T07:31:32.985Z,100404.03
2022-11-08T07:34:05.965Z,100412.56
2022-11-08T07:36:36.857Z,100400.59
2022-11-08T07:39:07.674Z,100352.53
2022-11-08T07:41:41.153Z,100385.16
2022-11-08T07:44:12.164Z,100399.69
2022-11-08T07:46:41.996Z,100398.94
2022-11-08T07:49:11.784Z,100400.66
2022-11-08T07:51:48.574Z,100395.63
2022-11-08T07:54:19.427Z,100386.19
2022-11-08T07:57:06.581Z,100390.56
2022-11-08T07:59:59.875Z,100379.56
2022-11-08T08:02:32.244Z,100373.69
2022-11-08T08:05:36.391Z,100391.63
2022-11-08T08:08:09.399Z,100322.41
2022-11-08T08:11:01.958Z,100382.41
2022-11-08T08:13:36.398Z,100381.63
2022-11-08T08:16:26.721Z,100331.22
2022-11-08T08:19:19.197Z,100316.72
2022-11-08T08:22:09.893Z,100363.00
2022-11-08T08:24:43.910Z,100345.94
2022-11-08T08:27:14.729Z,100360.47
2022-11-08T08:29:58.870Z,100357.06
2022-11-08T08:32:32.092Z,100281.78
2022-11-08T08:35:05.742Z,100343.38
2022-11-08T08:37:35.993Z,100360.53
2022-11-08T08:40:10.879Z,100346.81
2022-11-08T08:42:45.014Z,100344.25
2022-11-08T08:45:24.333Z,100355.41
2022-11-08T08:48:17.139Z,100339.94
2022-11-08T08:51:09.268Z,100293.72
2022-11-08T08:53:45.212Z,100333.97
2022-11-08T08:56:29.384Z,100312.59
2022-11-08T09:02:04.016Z,100334.00
2022-11-08T09:04:35.900Z,100322.88
2022-11-08T09:07:07.995Z,100328.09
2022-11-08T09:09:44.850Z,100300.72
2022-11-08T09:12:15.711Z,100317.88
2022-11-08T09:14:45.490Z,100328.13
2022-11-08T09:17:17.923Z,100300.78
2022-11-08T09:19:53.052Z,100293.06
2022-11-08T09:22:27.886Z,100314.47
2022-11-08T09:25:01.051Z,100305.03
2022-11-08T09:27:34.925Z,100312.72
2022-11-08T09:30:04.944Z,100293.91
2022-11-08T09:32:59.683Z,100298.22
2022-11-08T09:35:27.329Z,100214.44
2022-11-08T09:37:57.920Z,100317.84
2022-11-08T09:40:34.142Z,100318.69
2022-11-08T09:43:23.900Z,100315.28
2022-11-08T09:45:56.129Z,100321.28
2022-11-08T09:48:32.531Z,100308.41
2022-11-08T09:51:09.086Z,100295.59
2022-11-08T09:53:50.394Z,100312.66
2022-11-08T09:56:27.916Z,100303.19
2022-11-08T09:59:02.344Z,100293.75
2022-11-08T10:01:34.516Z,100287.66
2022-11-08T10:04:13.036Z,100262.09
2022-11-08T10:07:01.028Z,100290.19
2022-11-08T10:09:47.007Z,100295.31
2022-11-08T10:12:22.480Z,100283.34
2022-11-08T10:15:06.657Z,100244.84
2022-11-08T10:18:00.329Z,100273.91
2022-11-08T10:20:41.836Z,100256.78
2022-11-08T10:23:23.697Z,100261.84
2022-11-08T10:25:57.869Z,100254.25
2022-11-08T10:28:34.263Z,100259.41
2022-11-08T10:31:05.166Z,100247.38
2022-11-08T10:33:40.538Z,100261.88
2022-11-08T10:36:16.155Z,100244.69
2022-11-08T10:38:53.076Z,100205.38
2022-11-08T10:41:29.496Z,100248.75
2022-11-08T10:44:04.930Z,100234.22
2022-11-08T10:46:42.311Z,100230.81
2022-11-08T10:49:19.573Z,100240.16
2022-11-08T10:51:54.427Z,100258.91
2022-11-08T10:54:46.060Z,100239.16
2022-11-08T10:57:20.409Z,100219.63
2022-11-08T10:59:50.206Z,100234.19
2022-11-08T11:02:31.549Z,100219.66
2022-11-08T11:05:23.770Z,100253.09
2022-11-08T11:08:16.131Z,100244.53
2022-11-08T11:10:48.322Z,100212.91
2022-11-08T11:13:23.616Z,100218.84
2022-11-08T11:15:55.909Z,100214.47
2022-11-08T11:18:32.786Z,100153.06
2022-11-08T11:21:12.179Z,100215.31
2022-11-08T11:23:48.173Z,100203.28
2022-11-08T11:26:32.040Z,100225.56
2022-11-08T11:29:17.137Z,100222.16
2022-11-08T11:31:49.575Z,100214.38
2022-11-08T11:34:46.923Z,100213.41
2022-11-08T11:37:30.619Z,100206.69
2022-11-08T11:40:15.841Z,100205.84
2022-11-08T11:42:55.474Z,100169.16
2022-11-08T11:45:31.600Z,100175.16
2022-11-08T11:48:05.130Z,100186.31
2022-11-08T11:50:37.958Z,100182.00
2022-11-08T11:53:10.485Z,100175.94
2022-11-08T11:55:53.518Z,100165.59
2022-11-08T11:58:37.172Z,100165.59
2022-11-08T12:01:17.960Z,100172.44
2022-11-08T12:04:19.893Z,100160.56
2022-11-08T12:07:04.697Z,100152.78
2022-11-08T12:09:48.254Z,100156.16
2022-11-08T12:12:34.694Z,100140.78
2022-11-08T12:15:13.546Z,100084.31
2022-11-08T12:18:42.199Z,100134.56
2022-11-08T12:21:16.255Z,100144.78
2022-11-08T12:24:09.977Z,100136.97
2022-11-08T12:26:47.622Z,100136.00
2022-11-08T12:29:32.263Z,100147.81
2022-11-08T12:32:21.752Z,100123.91
2022-11-08T12:35:05.982Z,100131.63
2022-11-08T12:37:50.446Z,100132.59
2022-11-08T12:40:27.664Z,100115.63
2022-11-08T12:43:16.009Z,100133.41
2022-11-08T12:45:59.926Z,100098.41
2022-11-08T12:48:51.851Z,100124.00
2022-11-08T12:51:28.490Z,100100.06
2022-11-08T12:54:18.892Z,100128.38
2022-11-08T12:56:53.769Z,100138.63
2022-11-08T12:59:26.744Z,100113.03
2022-11-08T13:02:01.378Z,100131.63
2022-11-08T13:04:41.478Z,100128.28
2022-11-08T13:07:22.471Z,100120.72
2022-11-08T13:09:59.242Z,100126.72
2022-11-08T13:12:43.301Z,100115.56
2022-11-08T13:15:20.476Z,100142.84
2022-11-08T13:18:38.778Z,100103.63
2022-11-08T13:21:38.352Z,100121.38
2022-11-08T13:24:45.656Z,100130.03
2022-11-08T13:27:35.854Z,100131.63
2022-11-08T13:30:28.459Z,100131.56
2022-11-08T13:33:07.591Z,100135.13
2022-11-08T13:35:51.044Z,100130.88
2022-11-08T13:38:33.075Z,100135.31
2022-11-08T13:41:17.711Z,100090.88
2022-11-08T13:43:50.149Z,100121.63
2022-11-08T13:46:51.611Z,100090.09
2022-11-08T13:49:24.526Z,100120.09
2022-11-08T13:52:31.903Z,100118.31
2022-11-08T13:55:04.458Z,100093.56
2022-11-08T13:57:59.657Z,100119.28
2022-11-08T14:00:46.825Z,100119.25
2022-11-08T14:03:47.723Z,100077.50
2022-11-08T14:06:26.638Z,100127.06
2022-11-08T14:09:06.019Z,100092.09
2022-11-08T14:11:48.664Z,100132.22
2022-11-08T14:14:46.428Z,100134.03
2022-11-08T14:17:45.984Z,100131.50
2022-11-08T14:20:35.071Z,100145.94
2022-11-08T14:23:18.103Z,100108.41
2022-11-08T14:25:50.970Z,100137.47
2022-11-08T14:28:29.173Z,100123.69
2022-11-08T14:31:01.920Z,100149.38
2022-11-08T14:33:33.196Z,100147.66
2022-11-08T14:36:05.535Z,100138.31
2022-11-08T14:38:39.070Z,100128.88
2022-11-08T14:41:10.221Z,100120.31
2022-11-08T14:43:46.194Z,100122.84
2022-11-08T14:46:23.274Z,100116.06
2022-11-08T14:48:56.756Z,100099.97
2022-11-08T14:51:29.093Z,100143.59
2022-11-08T14:53:59.290Z,100149.66
2022-11-08T14:56:31.813Z,100159.97
2022-11-08T14:59:08.499Z,100153.94
2022-11-08T15:01:39.602Z,100137.72
2022-11-08T15:04:16.149Z,100151.25
2022-11-08T15:06:49.837Z,100143.59
2022-11-08T15:09:24.153Z,100147.97
2022-11-08T15:11:58.770Z,100098.56
2022-11-08T15:14:36.435Z,100151.34
2022-11-08T15:17:07.741Z,100121.56
2022-11-08T15:19:42.654Z,100131.75
2022-11-08T15:22:28.758Z,100129.53
2022-11-08T15:25:05.845Z,100130.66
2022-11-08T15:27:38.923Z,100143.50
2022-11-08T15:30:18.159Z,100138.44
2022-11-08T15:32:49.984Z,100135.94
2022-11-08T15:35:26.314Z,100139.31
2022-11-08T15:38:02.955Z,100123.19
2022-11-08T15:40:36.476Z,100133.34
2022-11-08T15:43:06.737Z,100126.50
2022-11-08T15:45:40.428Z,100121.34
2022-11-08T15:48:22.413Z,100097.41
2022-11-08T15:50:53.450Z,100080.41
2022-11-08T15:53:24.509Z,100116.13
2022-11-08T15:55:57.679Z,100103.34
2022-11-08T15:58:30.697Z,100099.13
2022-11-08T16:01:06.066Z,100097.50
2022-11-08T16:03:36.936Z,100094.84
2022-11-08T16:06:08.346Z,100097.44
2022-11-08T16:08:40.230Z,100062.38
2022-11-08T16:11:16.715Z,100051.47
2022-11-08T16:13:49.050Z,100094.84
2022-11-08T16:16:24.781Z,100079.50
2022-11-08T16:18:55.586Z,100090.56
2022-11-08T16:21:26.742Z,100099.97
2022-11-08T16:23:57.682Z,100084.78
2022-11-08T16:26:29.811Z,100073.72
2022-11-08T16:29:01.249Z,100089.88
2022-11-08T16:31:39.650Z,100081.34
2022-11-08T16:34:12.863Z,100077.03
2022-11-08T16:36:46.368Z,100073.66
2022-11-08T16:39:19.405Z,100083.09
2022-11-08T16:41:50.490Z,100031.03
2022-11-08T16:44:20.972Z,100089.84
2022-11-08T16:46:55.448Z,100065.97
2022-11-08T16:49:27.840Z,100090.81
2022-11-08T16:51:58.861Z,100086.53
2022-11-08T16:54:31.374Z,100094.41
2022-11-08T16:57:28.359Z,100112.38
2022-11-08T16:59:52.086Z,100074.91
2022-11-08T17:02:32.363Z,100102.25
2022-11-08T17:05:03.210Z,100102.25
2022-11-08T17:07:33.270Z,100086.00
2022-11-08T17:10:04.168Z,100114.16
2022-11-08T17:12:35.082Z,100108.25
2022-11-08T17:15:06.382Z,100117.63
2022-11-08T17:17:40.032Z,100107.38
2022-11-08T17:20:13.713Z,100074.03
2022-11-08T17:22:47.731Z,100101.41
2022-11-08T17:25:19.769Z,100112.50
2022-11-08T17:27:51.675Z,100074.16
2022-11-08T17:30:26.680Z,100073.25
2022-11-08T17:33:00.630Z,100092.06
2022-11-08T17:35:31.518Z,100035.72
2022-11-08T17:38:02.385Z,100103.97
2022-11-08T17:40:33.547Z,100078.41
2022-11-08T17:43:04.452Z,100112.59
2022-11-08T17:45:35.445Z,100093.78
2022-11-08T17:48:09.128Z,100091.22
2022-11-08T17:50:39.270Z,100097.22
2022-11-08T17:53:10.271Z,100086.94
2022-11-08T17:55:40.202Z,100123.59
2022-11-08T17:58:11.682Z,100121.09
2022-11-08T18:00:41.880Z,100121.09
2022-11-08T18:03:15.974Z,100136.44
2022-11-08T18:05:55.891Z,100128.75
2022-11-08T18:08:28.143Z,100114.19
2022-11-08T18:10:58.426Z,100132.16
2022-11-08T18:13:30.157Z,100108.25
2022-11-08T18:16:09.080Z,100121.13
2022-11-08T18:18:43.384Z,100125.41
2022-11-08T18:21:13.791Z,100121.03
2022-11-08T18:23:44.769Z,100112.50
2022-11-08T18:26:15.737Z,100109.06
2022-11-08T18:28:52.354Z,100121.91
2022-11-08T18:31:24.473Z,100130.47
2022-11-08T18:33:59.516Z,100124.47
2022-11-08T18:36:32.660Z,100125.31
2022-11-08T18:39:04.239Z,100113.31
2022-11-08T18:41:36.674Z,100109.94
2022-11-08T18:44:08.345Z,100107.34
2022-11-08T18:46:43.132Z,100115.88
2022-11-08T18:49:16.469Z,100105.63
2022-11-08T18:51:52.014Z,100117.50
2022-11-08T18:54:23.884Z,100114.13
2022-11-08T18:56:53.941Z,100108.97
2022-11-08T18:59:24.905Z,100096.19
2022-11-08T19:01:57.007Z,100105.53
2022-11-08T19:04:29.582Z,100079.16
2022-11-08T19:06:59.610Z,100100.44
2022-11-08T19:09:30.804Z,100084.22
2022-11-08T19:12:05.890Z,100050.91
2022-11-08T19:14:38.132Z,100079.03
2022-11-08T19:17:10.761Z,100109.78
2022-11-08T19:19:44.472Z,100097.75
2022-11-08T19:22:15.314Z,100084.06
2022-11-08T19:24:46.500Z,100040.50
2022-11-08T19:27:17.648Z,100060.16
2022-11-08T19:29:48.511Z,100090.91
2022-11-08T19:32:21.053Z,100084.13
2022-11-08T19:34:54.741Z,100096.91
2022-11-08T19:37:25.744Z,100098.66
2022-11-08T19:39:55.973Z,100104.59
2022-11-08T19:42:26.046Z,100088.41
2022-11-08T19:44:55.998Z,100081.53
2022-11-08T19:47:27.063Z,100121.63
2022-11-08T19:50:01.726Z,100101.16
2022-11-08T19:52:32.761Z,100090.94
2022-11-08T19:55:02.726Z,100139.63
2022-11-08T19:57:35.061Z,100124.19
2022-11-08T20:00:07.057Z,100125.09
2022-11-08T20:02:42.575Z,100120.75
2022-11-08T20:05:16.028Z,100114.78
2022-11-08T20:07:47.896Z,100096.84
2022-11-08T20:10:17.998Z,100108.03
2022-11-08T20:12:49.078Z,100073.91
2022-11-08T20:15:19.084Z,100118.28
2022-11-08T20:17:49.125Z,100081.56
2022-11-08T20:20:22.054Z,100111.47
2022-11-08T20:22:52.116Z,100115.72
2022-11-08T20:25:23.146Z,100107.13
2022-11-08T20:27:52.979Z,100107.19
2022-11-08T20:30:22.985Z,100125.03
2022-11-08T20:32:52.971Z,100116.47
2022-11-08T20:35:27.607Z,100115.59
2022-11-08T20:37:59.313Z,100120.78
2022-11-08T20:40:30.115Z,100125.03
2022-11-08T20:43:01.166Z,100119.84
2022-11-08T20:45:31.183Z,100103.72
2022-11-08T20:48:02.565Z,100135.31
2022-11-08T20:50:39.177Z,100137.00
2022-11-08T20:53:11.260Z,100076.41
2022-11-08T20:55:41.165Z,100127.56
2022-11-08T20:58:13.250Z,100137.03
2022-11-08T21:00:57.874Z,100126.78
2022-11-08T21:03:31.054Z,100085.00
2022-11-08T21:06:06.364Z,100124.25
2022-11-08T21:11:30.149Z,100132.06
2022-11-08T21:14:00.358Z,100135.47
2022-11-08T21:16:35.419Z,100109.03
2022-11-08T21:19:13.476Z,100141.44
2022-11-08T21:21:47.391Z,100132.94
2022-11-08T21:24:18.327Z,100138.97
2022-11-08T21:26:49.357Z,100144.13
2022-11-08T21:29:20.166Z,100140.66
2022-11-08T21:31:50.909Z,100140.72
2022-11-08T21:34:21.741Z,100149.28
2022-11-08T21:36:55.204Z,100148.47
2022-11-08T21:39:26.040Z,100141.63
2022-11-08T21:41:57.057Z,100142.47
2022-11-08T21:44:27.904Z,100154.44
2022-11-08T21:46:58.701Z,100153.59
2022-11-08T21:49:29.559Z,100108.41
2022-11-08T21:52:03.674Z,100154.47
2022-11-08T21:54:34.534Z,100142.56
2022-11-08T21:57:04.327Z,100145.06
2022-11-08T21:59:35.111Z,100149.38
2022-11-08T22:02:05.950Z,100104.16
2022-11-08T22:04:36.886Z,100136.59
2022-11-08T22:07:10.355Z,100139.16
2022-11-08T22:09:40.130Z,100164.75
2022-11-08T22:12:11.782Z,100159.66
2022-11-08T22:14:42.717Z,100165.66
2022-11-08T22:17:13.317Z,100155.41
2022-11-08T22:19:44.086Z,100121.28
2022-11-08T22:22:17.790Z,100157.09
2022-11-08T22:24:48.639Z,100169.91
2022-11-08T22:27:18.749Z,100171.63
2022-11-08T22:29:49.573Z,100146.00
2022-11-08T22:32:19.319Z,100164.72
2022-11-08T22:34:49.169Z,100170.69
2022-11-08T22:37:21.757Z,100156.16
2022-11-08T22:39:51.533Z,100162.16
2022-11-08T22:42:21.311Z,100120.34
2022-11-08T22:44:51.013Z,100176.69
2022-11-08T22:47:20.771Z,100153.66
2022-11-08T22:49:50.525Z,100169.81
2022-11-08T22:52:22.857Z,100163.81
2022-11-08T22:54:52.600Z,100162.97
2022-11-08T22:57:22.392Z,100096.41
2022-11-08T22:59:52.128Z,100156.16
2022-11-08T23:02:21.938Z,100154.44
2022-11-08T23:04:51.703Z,100148.41
2022-11-08T23:07:24.044Z,100151.00
2022-11-08T23:09:53.829Z,100137.31
2022-11-08T23:12:36.051Z,100120.25
2022-11-08T23:15:18.439Z,100133.94
2022-11-08T23:17:48.193Z,100135.63
2022-11-08T23:20:31.016Z,100124.53
2022-11-08T23:23:16.061Z,100164.66
2022-11-08T23:25:46.038Z,100160.38
2022-11-08T23:28:28.253Z,100162.13
2022-11-08T23:31:10.460Z,100154.38
2022-11-08T23:33:45.352Z,100159.47
2022-11-08T23:36:15.912Z,100129.59
2022-11-08T23:38:48.365Z,100157.78
2022-11-08T23:41:30.620Z,100166.38
2022-11-08T23:44:12.829Z,100143.31
2022-11-08T23:46:42.843Z,100143.31
2022-11-08T23:49:12.573Z,100166.34
2022-11-08T23:51:42.368Z,100153.63
2022-11-08T23:54:14.882Z,100162.13
2022-11-08T23:56:44.870Z,100171.56
2022-11-08T23:59:15.632Z,100163.00
